< < Back
Terminal Aerodrome Forecast


Current Version              Previous Versions:   1  2  3  4  5  6  7  8  9  

Terminal Aerodrome Forecast

222
FTUS42 KTAE 272320
TAFVLD
TAF
KVLD 272320Z 2800/2824 09003KT P6SM SCT100
      TEMPO 2811/2813 3SM BR SCT002
     FM281500 04007KT P6SM SCT040=

Latest METAR

989
SAUS70 KWBC 280100 RRD
MTRVLD
METAR KVLD 280053Z 00000KT 10SM BKN075 26/25 A2993 RMK AO2 SLP142
T02610250


USA.gov is the U.S. government's official web portal to all federal, state and local government web resources and services.